Bookmark and Share
Track history (hours):
 

Smit Barbados

Last reported at 2014-Apr-25 05:33 UTC. Time now 2014-Apr-25 06:01 UTC.
Position N 53°26' W 003°01'.

Length 30 m; draft 4.8 m.

Type: Tug. MMSI: 235055303.

NotesDate/timePositionNaut miles runAvg speedWind from/ knotsBaromVisibWave heightAir tempDewpointWater temp
2014-Apr-25 05:33N 53°26' W 003°01'1 0.6
2014-Apr-25 04:34N 53°26' W 002°60'0 0.0
2014-Apr-25 03:33N 53°26' W 002°60'0 0.0
2014-Apr-25 02:33N 53°26' W 002°60'0 0.0
2014-Apr-25 01:32N 53°26' W 002°60'0 0.0
2014-Apr-25 00:33N 53°26' W 002°60'0 0.0
2014-Apr-24 23:34N 53°26' W 002°60'0 0.0
2014-Apr-24 22:32N 53°26' W 002°60'0 0.0
2014-Apr-24 21:33N 53°26' W 002°60'0 0.0
2014-Apr-24 20:32N 53°26' W 002°60'0 0.0
2014-Apr-24 19:33N 53°26' W 002°60'0 0.0
2014-Apr-24 18:33N 53°26' W 002°60'2 1.7
2014-Apr-24 17:33N 53°27' W 003°01'2 1.6
2014-Apr-24 16:33N 53°26' W 003°00'0 0.1
2014-Apr-24 15:31N 53°26' W 002°60'0 0.0
2014-Apr-24 11:33N 53°26' W 002°60'0 0.0
2014-Apr-24 10:32N 53°26' W 002°60'0 0.0
2014-Apr-24 09:33N 53°26' W 002°60'0 0.0
2014-Apr-24 08:33N 53°26' W 002°60'1 0.6
2014-Apr-24 07:33N 53°26' W 003°00'1 0.8
2014-Apr-24 06:32N 53°27' W 003°01'0 0.1
2014-Apr-24 05:33N 53°27' W 003°01'1 0.8
2014-Apr-24 04:33N 53°27' W 003°02'1 0.9
2014-Apr-24 03:33N 53°27' W 003°01'1 1.2
2014-Apr-24 02:33N 53°26' W 002°60'0 0.0
2014-Apr-24 01:33N 53°26' W 002°60'0 0.0
2014-Apr-24 00:33N 53°26' W 002°60'0 0.0
2014-Apr-23 23:32N 53°26' W 002°60'0 0.0
2014-Apr-23 22:30N 53°26' W 002°60'0 0.0
2014-Apr-23 21:33N 53°26' W 002°60'0 0.0
2014-Apr-23 20:33N 53°26' W 002°60'0 0.0
2014-Apr-23 19:33N 53°26' W 002°60'1 0.6
2014-Apr-23 18:33N 53°26' W 003°01'1 0.7
2014-Apr-23 17:33N 53°27' W 003°01'1 0.5
2014-Apr-23 16:33N 53°27' W 003°01'2 1.8
2014-Apr-23 15:32N 53°26' W 002°60'0 0.0
2014-Apr-23 14:33N 53°26' W 002°60'0 0.0
2014-Apr-23 13:33N 53°26' W 002°60'0 0.0
2014-Apr-23 12:25N 53°26' W 002°60'0 0.0
2014-Apr-23 11:33N 53°26' W 002°60'0 0.0
2014-Apr-23 10:33N 53°26' W 002°60'0 0.0
2014-Apr-23 09:32N 53°26' W 002°60'0 0.0
2014-Apr-23 08:33N 53°26' W 002°60'0 0.0
2014-Apr-23 07:33N 53°26' W 002°60'2 1.5
2014-Apr-23 06:33N 53°27' W 003°01'0 0.2
2014-Apr-23 05:33N 53°27' W 003°01'0 0.0
2014-Apr-23 04:34N 53°27' W 003°01'0 0.2
2014-Apr-23 03:34N 53°27' W 003°01'1 1.0
2014-Apr-23 02:33N 53°27' W 003°03'1 1.2
2014-Apr-23 01:33N 53°27' W 003°01'1 1.1
2014-Apr-23 00:31N 53°26' W 002°60'0 0.0
2014-Apr-22 23:33N 53°26' W 002°60'0 0.0
2014-Apr-22 22:33N 53°26' W 002°60'0 0.0
2014-Apr-22 21:33N 53°26' W 002°60'0 0.0
2014-Apr-22 20:33N 53°26' W 002°60'0 0.0
2014-Apr-22 19:33N 53°26' W 002°60'0 0.0
2014-Apr-22 18:33N 53°26' W 002°60'0 0.0
2014-Apr-22 17:33N 53°26' W 002°60'0 0.0
2014-Apr-22 16:32N 53°26' W 002°60'0 0.3
2014-Apr-22 15:33N 53°26' W 003°00'1 1.4
2014-Apr-22 14:33N 53°27' W 003°01'2 1.5
2014-Apr-22 13:26N 53°26' W 002°60'0 0.0
2014-Apr-22 12:33N 53°26' W 002°60'0 0.0
2014-Apr-22 11:33N 53°26' W 002°60'0 0.0
2014-Apr-22 10:30N 53°26' W 002°60'0 0.0
2014-Apr-22 09:32N 53°26' W 002°60'0 0.0
2014-Apr-22 08:32N 53°26' W 002°60'0 0.0
2014-Apr-22 07:33N 53°26' W 002°60'0 0.0
2014-Apr-22 06:33N 53°26' W 002°60'0 0.0
2014-Apr-22 05:33N 53°26' W 002°60'0 0.0
2014-Apr-22 04:33N 53°26' W 002°60'0 0.0
2014-Apr-22 03:33N 53°26' W 002°60'0 0.4
2014-Apr-22 02:34N 53°26' W 003°00'0 0.3
2014-Apr-22 01:34N 53°26' W 003°01'0 0.3
2014-Apr-22 00:34N 53°26' W 003°01'2 1.6
2014-Apr-21 23:34N 53°27' W 003°02'1 0.9
2014-Apr-21 22:34N 53°27' W 003°01'0 0.1
2014-Apr-21 21:33N 53°27' W 003°01'0 0.4
2014-Apr-21 20:33N 53°27' W 003°00'1 1.1
2014-Apr-21 19:33N 53°26' W 002°60'0 0.0
2014-Apr-21 18:33N 53°26' W 002°60'0 0.0
2014-Apr-21 17:33N 53°26' W 002°60'0 0.0
2014-Apr-21 16:33N 53°26' W 002°60'0 0.0
2014-Apr-21 15:33N 53°26' W 002°60'0 0.0
2014-Apr-21 14:33N 53°26' W 002°60'0 0.0
2014-Apr-21 13:33N 53°26' W 002°60'0 0.0
2014-Apr-21 12:33N 53°26' W 002°60'0 0.0
2014-Apr-21 11:33N 53°26' W 002°60'0 0.0
2014-Apr-21 10:33N 53°26' W 002°60'0 0.0
2014-Apr-21 09:33N 53°26' W 002°60'0 0.0
2014-Apr-21 08:27N 53°26' W 002°60'  
2014-Apr-19 02:11N 53°27' W 003°01'0 0.1
2014-Apr-19 00:22N 53°27' W 003°01'1 0.7
2014-Apr-18 23:33N 53°27' W 003°02'0 0.3
2014-Apr-18 22:25N 53°27' W 003°01'1 0.5
2014-Apr-18 21:28N 53°27' W 003°01'1 0.1
2014-Apr-18 11:30N 53°27' W 003°01'1 0.0
2014-Apr-17 10:28N 53°26' W 003°01'1 0.2
2014-Apr-17 07:33N 53°26' W 002°60'0 0.0
2014-Apr-17 06:31N 53°26' W 002°60'0 0.0
2014-Apr-17 05:33N 53°26' W 002°60'0 0.0
2014-Apr-17 04:33N 53°26' W 002°60'0 0.0
2014-Apr-17 03:33N 53°26' W 002°60'0 0.0
2014-Apr-17 02:33N 53°26' W 002°60'0 0.0
2014-Apr-17 01:33N 53°26' W 002°60'0 0.0
2014-Apr-17 00:33N 53°26' W 002°60'0 0.0
2014-Apr-16 23:33N 53°26' W 002°60'0 0.0
2014-Apr-16 22:33N 53°26' W 002°60'0 0.0
2014-Apr-16 21:33N 53°26' W 002°60'0 0.0
2014-Apr-16 20:33N 53°26' W 002°60'0 0.0
2014-Apr-16 19:33N 53°26' W 002°60'0 0.0
2014-Apr-16 18:33N 53°26' W 002°60'0 0.0
2014-Apr-16 17:33N 53°26' W 002°60'0 0.0
2014-Apr-16 16:33N 53°26' W 002°60'0 0.0
2014-Apr-16 15:33N 53°26' W 002°60'0 0.0
2014-Apr-16 14:33N 53°26' W 002°60'0 0.0
2014-Apr-16 13:33N 53°26' W 002°60'0 0.0
2014-Apr-16 12:33N 53°26' W 002°60'0 0.0
2014-Apr-16 11:33N 53°26' W 002°60'0 0.0
2014-Apr-16 10:33N 53°26' W 002°60'0 0.0
2014-Apr-16 09:12N 53°26' W 002°60'0 0.0
2014-Apr-16 08:32N 53°26' W 002°60'0 0.0
2014-Apr-16 07:33N 53°26' W 002°60'0 0.0
2014-Apr-16 06:32N 53°26' W 002°60'0 0.0
2014-Apr-16 05:33N 53°26' W 002°60'0 0.0
2014-Apr-16 04:31N 53°26' W 002°60'0 0.0
2014-Apr-16 03:33N 53°26' W 002°60'0 0.0
2014-Apr-16 02:33N 53°26' W 002°60'0 0.0
2014-Apr-16 01:33N 53°26' W 002°60'0 0.0
2014-Apr-16 00:33N 53°26' W 002°60'0 0.0
2014-Apr-15 23:31N 53°26' W 002°60'0 0.0
2014-Apr-15 22:33N 53°26' W 002°60'0 0.0
2014-Apr-15 18:33N 53°26' W 002°60'0 0.0
2014-Apr-15 17:32N 53°26' W 002°60'0 0.0
2014-Apr-15 16:33N 53°26' W 002°60'0 0.0
2014-Apr-15 15:32N 53°26' W 002°60'0 0.0
2014-Apr-15 14:33N 53°26' W 002°60'0 0.0
2014-Apr-15 12:34N 53°26' W 002°60'0 0.0
2014-Apr-15 11:33N 53°26' W 002°60'0 0.0
2014-Apr-15 10:33N 53°26' W 002°60'2 2.0
2014-Apr-15 09:34N 53°28' W 003°01'1 0.5
2014-Apr-15 08:34N 53°27' W 003°01'1 1.1
2014-Apr-15 07:34N 53°27' W 003°03'3 3.4
2014-Apr-15 06:34N 53°24' W 003°00'  

Dump ship's entire track history

sailing weather and tide predictions

Smit Barbados — MSDU8 — position and weather